createdAt,value
2019-04-06T00:00:52.742Z,7.30
2019-04-06T00:03:18.761Z,7.20
2019-04-06T00:05:44.793Z,7.30
2019-04-06T00:08:10.851Z,7.30
2019-04-06T00:10:36.879Z,7.30
2019-04-06T00:13:02.940Z,7.20
2019-04-06T00:15:28.949Z,7.20
2019-04-06T00:17:54.996Z,7.20
2019-04-06T00:20:21.049Z,7.10
2019-04-06T00:22:47.112Z,7.00
2019-04-06T00:25:13.859Z,7.10
2019-04-06T00:27:39.878Z,7.10
2019-04-06T00:30:05.892Z,7.20
2019-04-06T00:32:32.670Z,7.20
2019-04-06T00:34:58.688Z,7.20
2019-04-06T00:37:24.739Z,7.20
2019-04-06T00:39:50.765Z,7.20
2019-04-06T00:42:16.819Z,7.20
2019-04-06T00:44:43.558Z,7.20
2019-04-06T00:47:10.339Z,7.20
2019-04-06T00:49:36.366Z,7.20
2019-04-06T00:52:02.378Z,7.20
2019-04-06T00:54:28.477Z,7.30
2019-04-06T00:56:55.223Z,7.20
2019-04-06T00:59:21.982Z,7.20
2019-04-06T01:01:47.997Z,7.20
2019-04-06T01:04:14.039Z,7.20
2019-04-06T01:06:40.046Z,7.20
2019-04-06T01:09:06.094Z,7.20
2019-04-06T01:11:32.102Z,7.20
2019-04-06T01:13:58.160Z,7.20
2019-04-06T01:16:24.199Z,7.20
2019-04-06T01:18:50.241Z,7.20
2019-04-06T01:21:17.000Z,7.20
2019-04-06T01:23:43.042Z,7.20
2019-04-06T01:26:09.041Z,7.20
2019-04-06T01:28:35.818Z,7.30
2019-04-06T01:31:01.859Z,7.20
2019-04-06T01:33:27.916Z,7.20
2019-04-06T01:35:53.922Z,7.30
2019-04-06T01:38:20.739Z,7.20
2019-04-06T01:40:46.754Z,7.20
2019-04-06T01:43:12.781Z,7.20
2019-04-06T01:45:38.830Z,7.20
2019-04-06T01:48:04.830Z,7.20
2019-04-06T01:50:30.871Z,7.20
2019-04-06T01:52:56.867Z,7.20
2019-04-06T01:55:22.895Z,7.20
2019-04-06T01:57:48.882Z,7.20
2019-04-06T02:00:14.932Z,7.20
2019-04-06T02:02:40.942Z,7.20
2019-04-06T02:05:07.005Z,7.20
2019-04-06T02:07:33.012Z,7.20
2019-04-06T02:09:59.036Z,7.20
2019-04-06T02:12:25.049Z,7.20
2019-04-06T02:14:51.071Z,7.10
2019-04-06T02:17:17.070Z,7.10
2019-04-06T02:19:43.099Z,7.20
2019-04-06T02:22:09.842Z,7.20
2019-04-06T02:24:36.628Z,7.20
2019-04-06T02:27:02.683Z,7.30
2019-04-06T02:29:28.709Z,7.30
2019-04-06T02:31:54.737Z,7.30
2019-04-06T02:34:20.744Z,7.20
2019-04-06T02:36:46.778Z,7.30
2019-04-06T02:39:12.917Z,7.20
2019-04-06T02:41:38.888Z,7.30
2019-04-06T02:44:04.928Z,7.20
2019-04-06T02:46:31.739Z,7.20
2019-04-06T02:48:57.770Z,7.20
2019-04-06T02:51:23.798Z,7.20
2019-04-06T02:53:49.794Z,7.20
2019-04-06T02:56:16.568Z,7.20
2019-04-06T02:58:42.591Z,7.20
2019-04-06T03:01:08.641Z,7.20
2019-04-06T03:03:34.657Z,7.20
2019-04-06T03:06:00.644Z,7.20
2019-04-06T03:08:26.667Z,7.20
2019-04-06T03:10:52.678Z,7.20
2019-04-06T03:13:18.752Z,7.20
2019-04-06T03:15:45.731Z,7.20
2019-04-06T03:18:11.675Z,7.10
2019-04-06T03:20:37.683Z,7.20
2019-04-06T03:23:03.743Z,7.20
2019-04-06T03:25:29.767Z,7.20
2019-04-06T03:27:55.826Z,7.30
2019-04-06T03:30:21.841Z,7.30
2019-04-06T03:32:47.857Z,7.30
2019-04-06T03:35:13.874Z,7.30
2019-04-06T03:37:39.891Z,7.30
2019-04-06T03:40:05.946Z,7.30
2019-04-06T03:42:33.123Z,7.30
2019-04-06T03:44:59.869Z,7.40
2019-04-06T03:47:26.042Z,7.40
2019-04-06T03:49:51.895Z,7.40
2019-04-06T03:52:18.673Z,7.40
2019-04-06T03:54:45.374Z,7.40
2019-04-06T03:57:16.058Z,7.40
2019-04-06T03:59:37.363Z,7.40
2019-04-06T04:02:03.327Z,7.40
2019-04-06T04:04:29.328Z,7.40
2019-04-06T04:06:55.312Z,7.40
2019-04-06T04:09:22.048Z,7.50
2019-04-06T04:11:48.768Z,7.60
2019-04-06T04:14:14.740Z,7.60
2019-04-06T04:16:40.700Z,7.60
2019-04-06T04:19:06.677Z,7.60
2019-04-06T04:21:32.734Z,7.60
2019-04-06T04:23:59.430Z,7.60
2019-04-06T04:26:26.111Z,7.60
2019-04-06T04:28:52.092Z,7.70
2019-04-06T04:31:18.829Z,7.60
2019-04-06T04:33:45.585Z,7.60
2019-04-06T04:36:11.573Z,7.60
2019-04-06T04:38:37.576Z,7.70
2019-04-06T04:41:03.553Z,7.70
2019-04-06T04:43:29.541Z,7.70
2019-04-06T04:45:55.551Z,7.70
2019-04-06T04:48:21.527Z,7.70
2019-04-06T04:50:47.505Z,7.70
2019-04-06T04:53:13.471Z,7.80
2019-04-06T04:55:39.457Z,7.80
2019-04-06T04:58:05.413Z,7.80
2019-04-06T05:00:32.143Z,7.80
2019-04-06T05:02:58.849Z,7.80
2019-04-06T05:05:24.842Z,7.80
2019-04-06T05:07:50.806Z,7.80
2019-04-06T05:10:16.780Z,7.80
2019-04-06T05:12:42.748Z,7.90
2019-04-06T05:15:08.744Z,7.90
2019-04-06T05:17:34.705Z,7.90
2019-04-06T05:20:00.684Z,7.90
2019-04-06T05:22:26.639Z,8.00
2019-04-06T05:24:53.417Z,7.90
2019-04-06T05:27:19.416Z,7.90
2019-04-06T05:29:45.488Z,7.90
2019-04-06T05:32:11.546Z,7.90
2019-04-06T05:34:37.479Z,8.00
2019-04-06T05:37:03.438Z,7.90
2019-04-06T05:39:29.455Z,8.00
2019-04-06T05:41:56.384Z,8.00
2019-04-06T05:44:22.195Z,8.00
2019-04-06T05:46:48.181Z,8.00
2019-04-06T05:49:14.177Z,8.00
2019-04-06T05:51:40.163Z,8.00
2019-04-06T05:54:06.130Z,8.00
2019-04-06T05:56:32.128Z,8.00
2019-04-06T05:58:58.841Z,8.10
2019-04-06T06:01:24.835Z,8.00
2019-04-06T06:03:50.800Z,8.00
2019-04-06T06:06:16.795Z,8.00
2019-04-06T06:08:42.758Z,8.00
2019-04-06T06:11:09.569Z,8.10
2019-04-06T06:13:35.533Z,8.10
2019-04-06T06:16:02.277Z,8.10
2019-04-06T06:18:28.400Z,8.10
2019-04-06T06:20:54.376Z,8.10
2019-04-06T06:23:20.345Z,8.10
2019-04-06T06:25:46.353Z,8.10
2019-04-06T06:28:15.023Z,8.20
2019-04-06T06:30:39.110Z,8.20
2019-04-06T06:33:05.089Z,8.20
2019-04-06T06:35:31.065Z,8.20
2019-04-06T06:37:57.256Z,8.20
2019-04-06T06:40:23.860Z,8.30
2019-04-06T06:42:49.863Z,8.30
2019-04-06T06:45:15.847Z,8.40
2019-04-06T06:47:41.854Z,8.40
2019-04-06T06:50:07.843Z,8.40
2019-04-06T06:52:34.783Z,8.50
2019-04-06T06:55:00.741Z,8.50
2019-04-06T06:57:26.647Z,8.60
2019-04-06T06:59:52.615Z,8.60
2019-04-06T07:02:18.624Z,8.60
2019-04-06T07:04:44.833Z,8.70
2019-04-06T07:07:10.756Z,8.60
2019-04-06T07:09:36.686Z,8.70
2019-04-06T07:12:02.686Z,8.70
2019-04-06T07:14:28.656Z,8.70
2019-04-06T07:16:54.659Z,8.70
2019-04-06T07:19:20.710Z,8.70
2019-04-06T07:21:46.673Z,8.80
2019-04-06T07:24:12.659Z,9.00
2019-04-06T07:26:41.149Z,9.00
2019-04-06T07:29:05.430Z,9.00
2019-04-06T07:31:32.131Z,9.10
2019-04-06T07:33:58.133Z,9.00
2019-04-06T07:36:24.109Z,9.30
2019-04-06T07:38:50.163Z,9.30
2019-04-06T07:41:16.136Z,9.50
2019-04-06T07:43:42.142Z,9.60
2019-04-06T07:46:08.288Z,9.90
2019-04-06T07:48:34.235Z,10.20
2019-04-06T07:51:00.947Z,10.20
2019-04-06T07:53:26.954Z,10.10
2019-04-06T07:55:52.944Z,10.00
2019-04-06T07:58:18.933Z,10.10
2019-04-06T08:00:44.894Z,10.30
2019-04-06T08:03:10.902Z,10.60
2019-04-06T08:05:36.899Z,10.40
2019-04-06T08:08:02.915Z,10.70
2019-04-06T08:10:28.905Z,11.10
2019-04-06T08:12:54.896Z,11.80
2019-04-06T08:15:20.856Z,12.40
2019-04-06T08:17:46.858Z,13.00
2019-04-06T08:20:12.821Z,13.20
2019-04-06T08:22:38.819Z,13.20
2019-04-06T08:25:04.748Z,12.80
2019-04-06T08:27:30.776Z,12.50
2019-04-06T08:29:56.784Z,11.90
2019-04-06T08:32:22.768Z,11.90
2019-04-06T08:34:48.791Z,11.40
2019-04-06T08:37:14.794Z,11.40
2019-04-06T08:39:40.814Z,11.50
2019-04-06T08:42:06.810Z,12.30
2019-04-06T08:44:32.817Z,12.70
2019-04-06T08:46:58.784Z,13.40
2019-04-06T08:49:25.032Z,13.60
2019-04-06T08:51:50.832Z,13.90
2019-04-06T08:54:16.849Z,15.20
2019-04-06T08:56:42.849Z,16.00
2019-04-06T08:59:12.090Z,16.60
2019-04-06T09:01:34.876Z,17.10
2019-04-06T09:04:00.867Z,17.10
2019-04-06T09:06:27.591Z,16.80
2019-04-06T09:08:53.591Z,16.80
2019-04-06T09:11:19.600Z,17.40
2019-04-06T09:13:45.593Z,17.90
2019-04-06T09:16:12.298Z,16.60
2019-04-06T09:18:38.309Z,16.60
2019-04-06T09:21:05.061Z,16.80
2019-04-06T09:23:31.055Z,16.70
2019-04-06T09:25:57.201Z,16.60
2019-04-06T09:28:23.112Z,16.80
2019-04-06T09:30:49.896Z,17.30
2019-04-06T09:33:16.636Z,17.60
2019-04-06T09:35:43.625Z,17.70
2019-04-06T09:38:09.440Z,17.70
2019-04-06T09:40:35.424Z,16.70
2019-04-06T09:43:01.426Z,16.60
2019-04-06T09:45:27.424Z,16.30
2019-04-06T09:47:53.390Z,17.20
2019-04-06T09:50:19.381Z,17.10
2019-04-06T09:52:45.402Z,16.70
2019-04-06T09:55:11.410Z,16.90
2019-04-06T09:57:37.411Z,17.00
2019-04-06T10:00:03.421Z,17.00
2019-04-06T10:02:29.446Z,17.50
2019-04-06T10:04:56.349Z,17.60
2019-04-06T10:07:22.474Z,17.60
2019-04-06T10:09:48.331Z,17.20
2019-04-06T10:12:15.077Z,16.30
2019-04-06T10:14:41.062Z,16.30
2019-04-06T10:17:07.058Z,16.90
2019-04-06T10:19:33.374Z,17.20
2019-04-06T10:21:59.106Z,16.80
2019-04-06T10:24:25.093Z,15.90
2019-04-06T10:26:51.830Z,16.20
2019-04-06T10:29:18.548Z,16.60
2019-04-06T10:31:44.559Z,16.50
2019-04-06T10:34:10.532Z,17.40
2019-04-06T10:36:36.766Z,17.60
2019-04-06T10:39:02.554Z,16.30
2019-04-06T10:41:29.323Z,17.70
2019-04-06T10:43:55.319Z,17.60
2019-04-06T10:46:22.053Z,17.00
2019-04-06T10:48:48.069Z,17.00
2019-04-06T10:51:14.134Z,17.50
2019-04-06T10:53:40.833Z,17.40
2019-04-06T10:56:06.920Z,17.40
2019-04-06T10:58:33.130Z,17.10
2019-04-06T11:00:59.088Z,17.20
2019-04-06T11:03:24.963Z,16.90
2019-04-06T11:05:51.014Z,16.90
2019-04-06T11:08:17.034Z,16.50
2019-04-06T11:10:43.013Z,16.40
2019-04-06T11:13:09.039Z,16.40
2019-04-06T11:15:35.034Z,16.00
2019-04-06T11:18:01.163Z,15.40
2019-04-06T11:20:27.671Z,15.80
2019-04-06T11:22:53.101Z,16.20
2019-04-06T11:25:19.087Z,16.30
2019-04-06T11:27:45.104Z,16.10
2019-04-06T11:30:13.654Z,16.20
2019-04-06T11:32:37.159Z,16.10
2019-04-06T11:35:03.136Z,16.20
2019-04-06T11:37:29.895Z,16.20
2019-04-06T11:39:55.888Z,16.20
2019-04-06T11:42:21.872Z,16.10
2019-04-06T11:44:48.146Z,16.60
2019-04-06T11:47:13.903Z,16.50
2019-04-06T11:49:39.925Z,16.90
2019-04-06T11:52:05.911Z,16.80
2019-04-06T11:54:31.971Z,16.40
2019-04-06T11:56:58.928Z,15.80
2019-04-06T11:59:24.974Z,15.80
2019-04-06T12:01:50.764Z,15.90
2019-04-06T12:04:16.810Z,16.10
2019-04-06T12:06:43.056Z,16.40
2019-04-06T12:09:08.857Z,16.50
2019-04-06T12:11:35.025Z,16.50
2019-04-06T12:14:01.207Z,16.50
2019-04-06T12:16:27.843Z,16.40
2019-04-06T12:18:53.570Z,16.30
2019-04-06T12:21:19.653Z,16.30
2019-04-06T12:23:45.865Z,16.30
2019-04-06T12:26:11.703Z,16.40
2019-04-06T12:28:38.757Z,16.40
2019-04-06T12:31:04.539Z,16.40
2019-04-06T12:33:30.785Z,16.60
2019-04-06T12:35:57.327Z,16.30
2019-04-06T12:38:24.926Z,16.30
2019-04-06T12:40:50.113Z,16.70
2019-04-06T12:43:16.112Z,16.60
2019-04-06T12:45:42.890Z,16.80
2019-04-06T12:48:08.851Z,16.80
2019-04-06T12:50:35.146Z,16.80
2019-04-06T12:53:01.210Z,16.80
2019-04-06T12:55:26.946Z,16.80
2019-04-06T12:57:52.929Z,16.70
2019-04-06T13:00:18.942Z,16.60
2019-04-06T13:02:44.945Z,16.60
2019-04-06T13:05:13.293Z,16.80
2019-04-06T13:07:36.957Z,16.70
2019-04-06T13:10:03.780Z,16.60
2019-04-06T13:12:29.737Z,16.70
2019-04-06T13:14:56.810Z,16.80
2019-04-06T13:17:22.499Z,16.80
2019-04-06T13:19:49.545Z,16.80
2019-04-06T13:22:15.282Z,16.80
2019-04-06T13:24:41.312Z,16.70
2019-04-06T13:27:07.457Z,16.80
2019-04-06T13:29:33.357Z,16.70
2019-04-06T13:31:59.355Z,16.80
2019-04-06T13:34:25.539Z,16.90
2019-04-06T13:36:52.104Z,16.90
2019-04-06T13:39:18.866Z,17.00
2019-04-06T13:41:45.612Z,16.90
2019-04-06T13:44:12.555Z,16.90
2019-04-06T13:46:38.544Z,16.90
2019-04-06T13:49:04.452Z,17.10
2019-04-06T13:51:30.832Z,17.10
2019-04-06T13:53:57.242Z,17.30
2019-04-06T13:56:23.238Z,17.30
2019-04-06T13:58:49.511Z,17.30
2019-04-06T14:01:17.552Z,17.30
2019-04-06T14:03:42.328Z,17.30
2019-04-06T14:06:08.361Z,17.40
2019-04-06T14:08:34.323Z,17.40
2019-04-06T14:11:00.318Z,17.40
2019-04-06T14:13:26.575Z,17.40
2019-04-06T14:15:52.391Z,17.50
2019-04-06T14:18:18.412Z,17.50
2019-04-06T14:20:45.114Z,17.60
2019-04-06T14:23:11.364Z,17.60
2019-04-06T14:25:37.185Z,17.50
2019-04-06T14:28:03.274Z,17.70
2019-04-06T14:30:29.284Z,17.80
2019-04-06T14:32:55.281Z,17.70
2019-04-06T14:35:21.983Z,17.60
2019-04-06T14:37:48.116Z,17.60
2019-04-06T14:40:15.093Z,17.60
2019-04-06T14:42:40.847Z,17.60
2019-04-06T14:45:06.856Z,17.60
2019-04-06T14:47:32.859Z,17.70
2019-04-06T14:49:59.768Z,17.60
2019-04-06T14:52:25.624Z,17.60
2019-04-06T14:54:52.387Z,17.60
2019-04-06T14:57:18.424Z,17.50
2019-04-06T14:59:44.569Z,17.60
2019-04-06T15:02:11.413Z,17.50
2019-04-06T15:04:37.382Z,17.60
2019-04-06T15:07:11.265Z,17.60
2019-04-06T15:09:30.165Z,17.60
2019-04-06T15:11:56.132Z,17.60
2019-04-06T15:14:22.125Z,17.80
2019-04-06T15:16:48.232Z,17.70
2019-04-06T15:19:17.401Z,17.70
2019-04-06T15:21:41.233Z,17.80
2019-04-06T15:24:07.275Z,17.80
2019-04-06T15:26:33.850Z,17.80
2019-04-06T15:29:01.451Z,17.80
2019-04-06T15:31:26.746Z,17.80
2019-04-06T15:33:53.434Z,17.90
2019-04-06T15:36:19.479Z,17.90
2019-04-06T15:38:46.235Z,17.90
2019-04-06T15:41:12.260Z,17.90
2019-04-06T15:43:38.979Z,17.90
2019-04-06T15:46:04.951Z,17.90
2019-04-06T15:48:38.749Z,17.90
2019-04-06T15:50:58.176Z,17.90
2019-04-06T15:53:23.808Z,17.90
2019-04-06T15:55:49.941Z,17.80
2019-04-06T15:58:15.859Z,17.80
2019-04-06T16:00:42.599Z,17.90
2019-04-06T16:03:08.604Z,17.90
2019-04-06T16:05:35.321Z,17.90
2019-04-06T16:08:01.530Z,17.90
2019-04-06T16:10:27.370Z,17.90
2019-04-06T16:12:53.361Z,17.90
2019-04-06T16:15:19.333Z,17.90
2019-04-06T16:17:45.509Z,17.90
2019-04-06T16:20:11.475Z,17.90
2019-04-06T16:22:37.610Z,17.90
2019-04-06T16:25:03.569Z,17.80
2019-04-06T16:27:29.539Z,17.80
2019-04-06T16:29:55.534Z,17.80
2019-04-06T16:32:31.826Z,17.80
2019-04-06T16:34:47.563Z,17.80
2019-04-06T16:37:13.534Z,17.80
2019-04-06T16:39:39.850Z,17.70
2019-04-06T16:42:05.592Z,17.60
2019-04-06T16:44:31.606Z,17.60
2019-04-06T16:46:57.595Z,17.50
2019-04-06T16:49:31.390Z,17.40
2019-04-06T16:51:57.631Z,17.40
2019-04-06T16:54:23.377Z,17.50
2019-04-06T16:56:49.642Z,17.50
2019-04-06T16:59:15.434Z,17.40
2019-04-06T17:01:42.503Z,17.20
2019-04-06T17:04:08.932Z,17.20
2019-04-06T17:06:36.123Z,17.20
2019-04-06T17:09:01.711Z,17.10
2019-04-06T17:11:27.946Z,17.10
2019-04-06T17:13:53.716Z,17.10
2019-04-06T17:16:20.194Z,17.10
2019-04-06T17:18:46.056Z,17.00
2019-04-06T17:21:13.040Z,17.00
2019-04-06T17:23:38.948Z,16.80
2019-04-06T17:26:04.732Z,16.80
2019-04-06T17:28:30.709Z,16.80
2019-04-06T17:30:57.477Z,16.70
2019-04-06T17:33:23.604Z,16.70
2019-04-06T17:35:49.523Z,16.60
2019-04-06T17:38:15.504Z,16.60
2019-04-06T17:40:41.505Z,16.40
2019-04-06T17:43:07.507Z,16.20
2019-04-06T17:45:33.501Z,16.20
2019-04-06T17:48:00.222Z,15.80
2019-04-06T17:50:26.548Z,15.80
2019-04-06T17:52:53.340Z,15.40
2019-04-06T17:55:19.202Z,15.40
2019-04-06T17:57:45.079Z,15.20
2019-04-06T18:00:11.087Z,15.00
2019-04-06T18:02:47.405Z,14.80
2019-04-06T18:05:03.347Z,14.60
2019-04-06T18:07:29.972Z,14.30
2019-04-06T18:09:55.956Z,14.30
2019-04-06T18:12:23.028Z,14.00
2019-04-06T18:14:48.859Z,14.00
2019-04-06T18:17:15.614Z,13.90
2019-04-06T18:19:41.683Z,13.80
2019-04-06T18:22:07.908Z,13.80
2019-04-06T18:24:34.459Z,13.60
2019-04-06T18:27:00.474Z,13.60
2019-04-06T18:29:26.497Z,13.50
2019-04-06T18:31:52.631Z,13.40
2019-04-06T18:34:18.518Z,13.30
2019-04-06T18:36:44.511Z,13.20
2019-04-06T18:39:10.523Z,13.20
2019-04-06T18:41:37.281Z,13.20
2019-04-06T18:44:03.277Z,13.20
2019-04-06T18:46:30.038Z,13.00
2019-04-06T18:48:56.787Z,12.90
2019-04-06T18:51:23.577Z,12.90
2019-04-06T18:53:49.546Z,12.80
2019-04-06T18:56:15.529Z,12.70
2019-04-06T18:58:41.547Z,12.70
2019-04-06T19:01:08.327Z,12.50
2019-04-06T19:03:35.601Z,12.50
2019-04-06T19:06:01.303Z,12.40
2019-04-06T19:08:27.173Z,12.40
2019-04-06T19:10:55.320Z,12.30
2019-04-06T19:13:19.376Z,12.30
2019-04-06T19:15:45.482Z,12.20
2019-04-06T19:18:12.465Z,12.10
2019-04-06T19:20:38.476Z,12.10
2019-04-06T19:23:04.496Z,12.10
2019-04-06T19:25:30.587Z,12.10
2019-04-06T19:27:56.833Z,12.00
2019-04-06T19:30:22.830Z,11.90
2019-04-06T19:32:49.520Z,11.90
2019-04-06T19:35:15.442Z,11.90
2019-04-06T19:37:41.740Z,11.90
2019-04-06T19:40:08.844Z,11.90
2019-04-06T19:42:35.199Z,11.80
2019-04-06T19:45:01.311Z,11.80
2019-04-06T19:47:27.708Z,11.70
2019-04-06T19:49:53.886Z,11.70
2019-04-06T19:52:19.897Z,11.70
2019-04-06T19:54:45.853Z,11.60
2019-04-06T19:57:13.090Z,11.50
2019-04-06T19:59:38.901Z,11.50
2019-04-06T20:02:04.661Z,11.40
2019-04-06T20:04:30.823Z,11.40
2019-04-06T20:06:56.972Z,11.30
2019-04-06T20:09:23.039Z,11.30
2019-04-06T20:11:49.041Z,11.20
2019-04-06T20:14:16.232Z,11.20
2019-04-06T20:16:41.962Z,11.20
2019-04-06T20:19:08.832Z,11.20
2019-04-06T20:21:34.741Z,11.20
2019-04-06T20:24:00.902Z,11.20
2019-04-06T20:26:27.715Z,11.10
2019-04-06T20:28:54.825Z,11.00
2019-04-06T20:31:20.713Z,11.00
2019-04-06T20:33:51.472Z,11.00
2019-04-06T20:36:13.020Z,10.90
2019-04-06T20:38:39.030Z,10.90
2019-04-06T20:41:04.647Z,10.90
2019-04-06T20:43:30.598Z,10.90
2019-04-06T20:45:56.645Z,10.80
2019-04-06T20:48:23.076Z,10.80
2019-04-06T20:50:48.658Z,10.80
2019-04-06T20:53:14.672Z,10.70
2019-04-06T20:55:40.930Z,10.60
2019-04-06T20:58:07.479Z,10.60
2019-04-06T21:00:34.621Z,10.50
2019-04-06T21:03:00.329Z,10.50
2019-04-06T21:05:26.335Z,10.50
2019-04-06T21:07:52.303Z,10.60
2019-04-06T21:10:18.338Z,10.50
2019-04-06T21:12:45.080Z,10.60
2019-04-06T21:15:18.291Z,10.60
2019-04-06T21:17:37.302Z,10.60
2019-04-06T21:20:03.319Z,10.40
2019-04-06T21:22:29.415Z,10.40
2019-04-06T21:24:55.735Z,10.40
2019-04-06T21:27:21.400Z,10.40
2019-04-06T21:29:47.376Z,10.30
2019-04-06T21:32:13.822Z,10.20
2019-04-06T21:34:39.449Z,10.20
2019-04-06T21:37:05.450Z,10.10
2019-04-06T21:39:31.439Z,10.10
2019-04-06T21:41:58.170Z,10.00
2019-04-06T21:44:25.545Z,10.00
2019-04-06T21:46:50.964Z,10.00
2019-04-06T21:49:17.006Z,10.00
2019-04-06T21:51:43.498Z,9.90
2019-04-06T21:54:09.334Z,9.90
2019-04-06T21:56:35.693Z,9.90
2019-04-06T21:59:01.880Z,9.80
2019-04-06T22:01:28.103Z,9.80
2019-04-06T22:03:53.959Z,9.80
2019-04-06T22:06:20.611Z,9.80
2019-04-06T22:08:46.788Z,9.90
2019-04-06T22:11:13.633Z,9.80
2019-04-06T22:13:40.860Z,9.80
2019-04-06T22:16:06.490Z,9.70
2019-04-06T22:18:32.786Z,9.70
2019-04-06T22:20:58.979Z,9.70
2019-04-06T22:23:25.214Z,9.70
2019-04-06T22:25:50.606Z,9.70
2019-04-06T22:28:17.765Z,9.60
2019-04-06T22:30:43.482Z,9.60
2019-04-06T22:33:09.485Z,9.70
2019-04-06T22:35:35.456Z,9.70
2019-04-06T22:38:01.452Z,9.70
2019-04-06T22:40:27.436Z,9.60
2019-04-06T22:42:53.431Z,9.60
2019-04-06T22:45:19.643Z,9.60
2019-04-06T22:47:45.452Z,9.50
2019-04-06T22:50:11.951Z,9.50
2019-04-06T22:52:38.702Z,9.50
2019-04-06T22:55:05.072Z,9.50
2019-04-06T22:57:30.766Z,9.50
2019-04-06T22:59:56.745Z,9.40
2019-04-06T23:02:22.742Z,9.40
2019-04-06T23:04:51.179Z,9.50
2019-04-06T23:07:14.863Z,9.40
2019-04-06T23:09:40.892Z,9.40
2019-04-06T23:12:07.369Z,9.40
2019-04-06T23:14:32.939Z,9.40
2019-04-06T23:16:58.917Z,9.50
2019-04-06T23:19:24.921Z,9.50
2019-04-06T23:21:50.898Z,9.50
2019-04-06T23:24:17.672Z,9.60
2019-04-06T23:26:43.640Z,9.50
2019-04-06T23:29:09.961Z,9.60
2019-04-06T23:31:36.074Z,9.50
2019-04-06T23:34:02.146Z,9.50
2019-04-06T23:36:27.851Z,9.50
2019-04-06T23:38:54.703Z,9.50
2019-04-06T23:41:20.628Z,9.50
2019-04-06T23:43:46.967Z,9.50
2019-04-06T23:46:13.044Z,9.40
2019-04-06T23:48:39.131Z,9.40
2019-04-06T23:51:05.240Z,9.40
2019-04-06T23:53:31.681Z,9.30
2019-04-06T23:55:57.560Z,9.30
2019-04-06T23:58:23.546Z,9.30
